Flight Number: EUR2340 Duration: 3:00
Departure: Antalya (LTAI) at 06:00 Distance: 1080 Nm
Arrival: Munich Int'l (EDDM) at 09:00 Equipment: A321

Weather Information
Antalya, Turkey (LTAI) 36-42N 030-44E 57M Feb 19, 2018 - 02:20 AM EST / 2018.02.19 0720 UTC
Wind: from the N (010 degrees) at 7 MPH (6 KT):0
Visibility: greater than 7 mile(s):0
Sky conditions: mostly cloudy Temperature: 55 F (13 C) Dew Point: 39 F (4 C) Relative Humidity: 54% Pressure (altimeter): 29.97 in. Hg (1015 hPa)
ob: LTAI 190720Z 01006KT 9999 SCT030 BKN100 13/04 Q1015 NOSIG cycle: 7
Sunrise: 04:42 Sunset: 15:38 (UTC)

Munchen, Germany (EDDM) 48-21N 011-47E Feb 19, 2018 - 02:20 AM EST / 2018.02.19 0720 UTC
Wind: Variable at 1 MPH (1 KT):0
Visibility: greater than 7 mile(s):0
Sky conditions: mostly cloudy Temperature: 24 F (-4 C) Dew Point: 23 F (-5 C) Relative Humidity: 92% Pressure (altimeter): 30.09 in. Hg (1019 hPa)
ob: EDDM 190720Z VRB01KT 9999 BKN010 M04/M05 Q1019 R88/190095 TEMPO BKN008 cycle: 7
Sunrise: 06:15 Sunset: 16:37 (UTC)

TAF:2018/02/19 06:27 TAF EDDM 190500Z 1906/2012 06005KT 8000 BKN012 TEMPO 1907/1918 BKN008 BECMG 1915/1918 VRB03KT BECMG 1920/1922 BKN020

Previous Pireps for this route
Date Aircraft Flight time Fuel used Landing rate On time
2015-01-07A32102.5417912-205Charter
2016-01-18A32103.0616984-2No
2016-04-05A32103.3526587-465.38No
2016-09-30A330-20002.3440823-171Charter
(pireps marked green are flown by you)

Route map